sensor_id;sensor_type;location;lat;lon;timestamp;pressure;altitude;pressure_sealevel;temperature;humidity
55466;BME280;41329;41.594;23.810;2023-02-10T00:02:21;96896.59;;;-1.62;47.91
55466;BME280;41329;41.594;23.810;2023-02-10T00:04:47;96904.16;;;-1.64;48.29
55466;BME280;41329;41.594;23.810;2023-02-10T00:07:12;96888.56;;;-1.79;48.32
55466;BME280;41329;41.594;23.810;2023-02-10T00:09:38;96883.41;;;-2.07;48.53
55466;BME280;41329;41.594;23.810;2023-02-10T00:12:03;96910.97;;;-1.93;48.60
55466;BME280;41329;41.594;23.810;2023-02-10T00:14:29;96901.50;;;-1.91;49.01
55466;BME280;41329;41.594;23.810;2023-02-10T00:16:56;96905.22;;;-1.97;49.20
55466;BME280;41329;41.594;23.810;2023-02-10T00:19:23;96904.28;;;-2.07;49.61
55466;BME280;41329;41.594;23.810;2023-02-10T00:21:49;96898.84;;;-2.07;49.30
55466;BME280;41329;41.594;23.810;2023-02-10T00:24:15;96891.75;;;-2.13;49.60
55466;BME280;41329;41.594;23.810;2023-02-10T00:26:41;96898.34;;;-2.04;49.06
55466;BME280;41329;41.594;23.810;2023-02-10T00:29:06;96892.34;;;-2.06;48.77
55466;BME280;41329;41.594;23.810;2023-02-10T00:31:32;96881.41;;;-2.16;49.60
55466;BME280;41329;41.594;23.810;2023-02-10T00:33:57;96896.38;;;-2.09;49.28
55466;BME280;41329;41.594;23.810;2023-02-10T00:36:23;96878.50;;;-2.31;49.20
55466;BME280;41329;41.594;23.810;2023-02-10T00:38:50;96888.66;;;-2.22;48.96
55466;BME280;41329;41.594;23.810;2023-02-10T00:41:19;96893.34;;;-2.39;49.05
55466;BME280;41329;41.594;23.810;2023-02-10T00:43:45;96890.25;;;-2.47;48.84
55466;BME280;41329;41.594;23.810;2023-02-10T00:46:15;96897.88;;;-2.44;48.81
55466;BME280;41329;41.594;23.810;2023-02-10T00:48:41;96882.31;;;-2.54;48.88
55466;BME280;41329;41.594;23.810;2023-02-10T00:51:08;96897.56;;;-2.48;48.78
55466;BME280;41329;41.594;23.810;2023-02-10T00:53:34;96898.41;;;-2.47;48.71
55466;BME280;41329;41.594;23.810;2023-02-10T00:55:59;96890.75;;;-2.50;48.95
55466;BME280;41329;41.594;23.810;2023-02-10T00:58:25;96888.06;;;-2.50;48.90
55466;BME280;41329;41.594;23.810;2023-02-10T01:00:51;96879.03;;;-2.56;48.92
55466;BME280;41329;41.594;23.810;2023-02-10T01:03:16;96890.50;;;-2.49;49.51
55466;BME280;41329;41.594;23.810;2023-02-10T01:05:42;96885.41;;;-2.45;50.04
55466;BME280;41329;41.594;23.810;2023-02-10T01:08:10;96883.28;;;-2.43;50.36
55466;BME280;41329;41.594;23.810;2023-02-10T01:10:35;96884.66;;;-2.41;50.26
55466;BME280;41329;41.594;23.810;2023-02-10T01:13:05;96873.03;;;-2.36;50.31
55466;BME280;41329;41.594;23.810;2023-02-10T01:15:31;96855.59;;;-2.45;50.08
55466;BME280;41329;41.594;23.810;2023-02-10T01:17:57;96877.13;;;-2.34;50.32
55466;BME280;41329;41.594;23.810;2023-02-10T01:20:23;96878.25;;;-2.30;50.12
55466;BME280;41329;41.594;23.810;2023-02-10T01:22:48;96874.16;;;-2.32;49.33
55466;BME280;41329;41.594;23.810;2023-02-10T01:25:14;96846.06;;;-2.48;49.21
55466;BME280;41329;41.594;23.810;2023-02-10T01:27:40;96865.69;;;-2.41;49.49
55466;BME280;41329;41.594;23.810;2023-02-10T01:30:05;96857.78;;;-2.42;49.00
55466;BME280;41329;41.594;23.810;2023-02-10T01:32:31;96843.88;;;-2.51;48.78
55466;BME280;41329;41.594;23.810;2023-02-10T01:34:56;96847.34;;;-2.55;48.87
55466;BME280;41329;41.594;23.810;2023-02-10T01:37:22;96844.59;;;-2.60;49.26
55466;BME280;41329;41.594;23.810;2023-02-10T01:39:47;96845.88;;;-2.63;49.54
55466;BME280;41329;41.594;23.810;2023-02-10T01:42:14;96834.94;;;-2.73;49.80
55466;BME280;41329;41.594;23.810;2023-02-10T01:47:05;96861.44;;;-2.53;50.43
55466;BME280;41329;41.594;23.810;2023-02-10T01:49:35;96856.81;;;-2.58;49.77
55466;BME280;41329;41.594;23.810;2023-02-10T01:52:09;96849.06;;;-2.71;49.65
55466;BME280;41329;41.594;23.810;2023-02-10T01:54:58;96869.31;;;-2.73;49.15
55466;BME280;41329;41.594;23.810;2023-02-10T01:57:25;96866.00;;;-2.80;49.47
55466;BME280;41329;41.594;23.810;2023-02-10T01:59:51;96860.19;;;-2.89;49.65
55466;BME280;41329;41.594;23.810;2023-02-10T02:02:18;96874.84;;;-2.85;49.89
55466;BME280;41329;41.594;23.810;2023-02-10T02:07:12;96872.09;;;-2.90;50.44
55466;BME280;41329;41.594;23.810;2023-02-10T02:09:37;96869.06;;;-2.93;50.80
55466;BME280;41329;41.594;23.810;2023-02-10T02:12:41;96830.03;;;-3.14;50.63
55466;BME280;41329;41.594;23.810;2023-02-10T02:15:27;96868.47;;;-2.95;50.45
55466;BME280;41329;41.594;23.810;2023-02-10T02:29:13;96862.63;;;-3.25;51.23
55466;BME280;41329;41.594;23.810;2023-02-10T02:37:22;96864.63;;;-3.21;52.42
55466;BME280;41329;41.594;23.810;2023-02-10T02:39:52;96855.66;;;-3.21;51.86
55466;BME280;41329;41.594;23.810;2023-02-10T02:42:22;96858.38;;;-3.21;50.61
55466;BME280;41329;41.594;23.810;2023-02-10T02:44:57;96849.69;;;-3.23;50.75
55466;BME280;41329;41.594;23.810;2023-02-10T02:50:56;96855.09;;;-3.23;51.36
55466;BME280;41329;41.594;23.810;2023-02-10T02:53:37;96850.59;;;-3.34;51.30
55466;BME280;41329;41.594;23.810;2023-02-10T02:56:11;96860.28;;;-3.38;51.14
55466;BME280;41329;41.594;23.810;2023-02-10T03:01:32;96856.13;;;-3.46;51.44
55466;BME280;41329;41.594;23.810;2023-02-10T03:04:00;96851.34;;;-3.55;51.84
55466;BME280;41329;41.594;23.810;2023-02-10T03:06:26;96852.81;;;-3.48;51.96
55466;BME280;41329;41.594;23.810;2023-02-10T03:08:51;96855.28;;;-3.46;52.00
55466;BME280;41329;41.594;23.810;2023-02-10T03:11:17;96845.47;;;-3.52;51.79
55466;BME280;41329;41.594;23.810;2023-02-10T03:13:43;96856.59;;;-3.49;51.78
55466;BME280;41329;41.594;23.810;2023-02-10T03:16:08;96856.59;;;-3.49;51.29
55466;BME280;41329;41.594;23.810;2023-02-10T03:18:34;96860.38;;;-3.50;51.67
55466;BME280;41329;41.594;23.810;2023-02-10T03:20:59;96866.59;;;-3.49;51.99
55466;BME280;41329;41.594;23.810;2023-02-10T03:23:25;96858.31;;;-3.59;51.79
55466;BME280;41329;41.594;23.810;2023-02-10T03:25:50;96862.19;;;-3.55;51.91
55466;BME280;41329;41.594;23.810;2023-02-10T03:28:16;96846.94;;;-3.78;51.63
55466;BME280;41329;41.594;23.810;2023-02-10T03:30:42;96867.84;;;-3.73;51.94
55466;BME280;41329;41.594;23.810;2023-02-10T03:33:13;96856.34;;;-3.80;51.74
55466;BME280;41329;41.594;23.810;2023-02-10T03:35:40;96880.59;;;-3.69;52.05
55466;BME280;41329;41.594;23.810;2023-02-10T03:38:06;96876.84;;;-3.68;52.42
55466;BME280;41329;41.594;23.810;2023-02-10T03:40:32;96877.09;;;-3.69;51.80
55466;BME280;41329;41.594;23.810;2023-02-10T03:42:57;96882.84;;;-3.66;52.33
55466;BME280;41329;41.594;23.810;2023-02-10T03:45:23;96880.97;;;-3.65;52.39
55466;BME280;41329;41.594;23.810;2023-02-10T03:47:48;96869.72;;;-3.74;52.73
55466;BME280;41329;41.594;23.810;2023-02-10T03:50:14;96883.66;;;-3.65;52.74
55466;BME280;41329;41.594;23.810;2023-02-10T03:52:39;96878.75;;;-3.68;52.82
55466;BME280;41329;41.594;23.810;2023-02-10T03:55:05;96844.06;;;-3.88;52.39
55466;BME280;41329;41.594;23.810;2023-02-10T03:57:30;96851.94;;;-3.86;52.71
55466;BME280;41329;41.594;23.810;2023-02-10T03:59:56;96880.06;;;-3.71;53.09
55466;BME280;41329;41.594;23.810;2023-02-10T04:02:21;96872.66;;;-3.75;52.90
55466;BME280;41329;41.594;23.810;2023-02-10T04:04:47;96865.53;;;-3.81;53.10
55466;BME280;41329;41.594;23.810;2023-02-10T04:07:12;96886.09;;;-3.80;53.04
55466;BME280;41329;41.594;23.810;2023-02-10T04:09:37;96861.50;;;-3.95;52.40
55466;BME280;41329;41.594;23.810;2023-02-10T04:12:03;96877.00;;;-3.91;52.16
55466;BME280;41329;41.594;23.810;2023-02-10T04:14:29;96889.84;;;-3.98;52.03
55466;BME280;41329;41.594;23.810;2023-02-10T04:16:54;96872.28;;;-4.12;52.04
55466;BME280;41329;41.594;23.810;2023-02-10T04:19:19;96871.53;;;-4.24;52.04
55466;BME280;41329;41.594;23.810;2023-02-10T04:21:45;96855.38;;;-4.35;52.50
55466;BME280;41329;41.594;23.810;2023-02-10T04:24:10;96871.19;;;-4.27;52.90
55466;BME280;41329;41.594;23.810;2023-02-10T04:26:36;96877.16;;;-4.25;53.58
55466;BME280;41329;41.594;23.810;2023-02-10T04:29:01;96869.56;;;-4.28;53.58
55466;BME280;41329;41.594;23.810;2023-02-10T04:31:27;96860.09;;;-4.42;53.38
55466;BME280;41329;41.594;23.810;2023-02-10T04:33:52;96876.16;;;-4.36;53.25
55466;BME280;41329;41.594;23.810;2023-02-10T04:36:18;96870.41;;;-4.39;53.70
55466;BME280;41329;41.594;23.810;2023-02-10T04:38:43;96861.88;;;-4.48;54.32
55466;BME280;41329;41.594;23.810;2023-02-10T04:41:08;96887.75;;;-4.63;54.67
55466;BME280;41329;41.594;23.810;2023-02-10T04:43:34;96882.31;;;-4.52;54.34
55466;BME280;41329;41.594;23.810;2023-02-10T04:46:00;96887.69;;;-4.40;54.52
55466;BME280;41329;41.594;23.810;2023-02-10T04:48:27;96887.19;;;-4.37;54.12
55466;BME280;41329;41.594;23.810;2023-02-10T04:50:53;96864.56;;;-4.48;53.94
55466;BME280;41329;41.594;23.810;2023-02-10T04:53:19;96873.72;;;-4.49;53.89
55466;BME280;41329;41.594;23.810;2023-02-10T04:55:44;96893.19;;;-4.35;54.00
55466;BME280;41329;41.594;23.810;2023-02-10T04:58:10;96893.66;;;-4.38;54.17
55466;BME280;41329;41.594;23.810;2023-02-10T05:00:35;96900.41;;;-4.52;54.64
55466;BME280;41329;41.594;23.810;2023-02-10T05:03:01;96883.09;;;-4.68;54.75
55466;BME280;41329;41.594;23.810;2023-02-10T05:05:26;96862.53;;;-4.69;54.20
55466;BME280;41329;41.594;23.810;2023-02-10T05:07:52;96892.41;;;-4.47;54.17
55466;BME280;41329;41.594;23.810;2023-02-10T05:10:18;96901.34;;;-4.47;54.28
55466;BME280;41329;41.594;23.810;2023-02-10T05:12:44;96904.47;;;-4.38;54.38
55466;BME280;41329;41.594;23.810;2023-02-10T05:15:09;96899.44;;;-4.46;54.13
55466;BME280;41329;41.594;23.810;2023-02-10T05:17:35;96905.34;;;-4.49;53.68
55466;BME280;41329;41.594;23.810;2023-02-10T05:20:01;96893.25;;;-4.58;53.56
55466;BME280;41329;41.594;23.810;2023-02-10T05:22:27;96886.13;;;-4.64;54.04
55466;BME280;41329;41.594;23.810;2023-02-10T05:24:55;96912.84;;;-4.51;54.27
55466;BME280;41329;41.594;23.810;2023-02-10T05:27:22;96901.25;;;-4.63;53.61
55466;BME280;41329;41.594;23.810;2023-02-10T05:29:48;96904.56;;;-4.61;53.48
55466;BME280;41329;41.594;23.810;2023-02-10T05:32:14;96907.03;;;-4.60;53.76
55466;BME280;41329;41.594;23.810;2023-02-10T05:34:39;96916.41;;;-4.62;53.95
55466;BME280;41329;41.594;23.810;2023-02-10T05:37:05;96917.22;;;-4.62;54.15
55466;BME280;41329;41.594;23.810;2023-02-10T05:39:30;96930.97;;;-4.63;54.25
55466;BME280;41329;41.594;23.810;2023-02-10T05:41:57;96929.47;;;-4.71;54.12
55466;BME280;41329;41.594;23.810;2023-02-10T05:44:24;96922.31;;;-4.88;54.04
55466;BME280;41329;41.594;23.810;2023-02-10T05:46:50;96934.88;;;-4.82;53.96
55466;BME280;41329;41.594;23.810;2023-02-10T05:49:16;96944.63;;;-4.81;54.27
55466;BME280;41329;41.594;23.810;2023-02-10T05:51:41;96945.19;;;-4.79;54.36
55466;BME280;41329;41.594;23.810;2023-02-10T05:54:07;96939.78;;;-4.79;54.17
55466;BME280;41329;41.594;23.810;2023-02-10T05:56:33;96935.34;;;-4.85;53.87
55466;BME280;41329;41.594;23.810;2023-02-10T05:58:58;96946.59;;;-4.88;54.16
55466;BME280;41329;41.594;23.810;2023-02-10T06:01:24;96900.28;;;-5.20;54.45
55466;BME280;41329;41.594;23.810;2023-02-10T06:03:49;96932.91;;;-4.98;54.83
55466;BME280;41329;41.594;23.810;2023-02-10T06:06:15;96946.72;;;-4.83;54.92
55466;BME280;41329;41.594;23.810;2023-02-10T06:08:41;96940.38;;;-4.77;55.10
55466;BME280;41329;41.594;23.810;2023-02-10T06:11:07;96941.56;;;-4.73;55.19
55466;BME280;41329;41.594;23.810;2023-02-10T06:13:33;96949.28;;;-4.65;55.39
55466;BME280;41329;41.594;23.810;2023-02-10T06:15:59;96935.09;;;-4.72;55.55
55466;BME280;41329;41.594;23.810;2023-02-10T06:18:27;96932.50;;;-4.67;55.81
55466;BME280;41329;41.594;23.810;2023-02-10T06:20:53;96955.38;;;-4.47;55.74
55466;BME280;41329;41.594;23.810;2023-02-10T06:23:19;96952.03;;;-4.37;55.91
55466;BME280;41329;41.594;23.810;2023-02-10T06:25:45;96960.13;;;-4.37;55.80
55466;BME280;41329;41.594;23.810;2023-02-10T06:28:11;96949.00;;;-4.41;55.85
55466;BME280;41329;41.594;23.810;2023-02-10T06:33:59;96940.19;;;-4.36;56.40
55466;BME280;41329;41.594;23.810;2023-02-10T06:36:24;96963.84;;;-4.15;56.33
55466;BME280;41329;41.594;23.810;2023-02-10T06:42:11;96955.16;;;-4.17;56.66
55466;BME280;41329;41.594;23.810;2023-02-10T06:44:36;96955.75;;;-4.27;57.32
55466;BME280;41329;41.594;23.810;2023-02-10T06:47:02;96971.59;;;-4.19;57.79
55466;BME280;41329;41.594;23.810;2023-02-10T06:49:27;96970.06;;;-4.15;58.16
55466;BME280;41329;41.594;23.810;2023-02-10T06:51:53;96966.50;;;-4.04;58.04
55466;BME280;41329;41.594;23.810;2023-02-10T06:54:20;96969.31;;;-3.99;58.27
55466;BME280;41329;41.594;23.810;2023-02-10T06:56:45;96964.13;;;-4.00;58.45
55466;BME280;41329;41.594;23.810;2023-02-10T06:59:11;96973.88;;;-3.99;58.65
55466;BME280;41329;41.594;23.810;2023-02-10T07:01:37;96949.84;;;-4.12;59.16
55466;BME280;41329;41.594;23.810;2023-02-10T07:04:02;96964.19;;;-4.12;59.37
55466;BME280;41329;41.594;23.810;2023-02-10T07:06:28;96965.25;;;-4.13;59.33
55466;BME280;41329;41.594;23.810;2023-02-10T07:08:53;96963.66;;;-3.97;59.60
55466;BME280;41329;41.594;23.810;2023-02-10T07:11:19;96966.38;;;-3.81;59.78
55466;BME280;41329;41.594;23.810;2023-02-10T07:13:44;96966.75;;;-3.61;60.48
55466;BME280;41329;41.594;23.810;2023-02-10T07:16:10;96976.13;;;-3.52;59.51
55466;BME280;41329;41.594;23.810;2023-02-10T07:18:39;96967.94;;;-3.40;59.90
55466;BME280;41329;41.594;23.810;2023-02-10T07:21:05;96959.00;;;-3.41;59.88
55466;BME280;41329;41.594;23.810;2023-02-10T07:23:31;96965.00;;;-3.22;59.12
55466;BME280;41329;41.594;23.810;2023-02-10T07:25:56;96951.88;;;-3.30;59.42
55466;BME280;41329;41.594;23.810;2023-02-10T07:28:22;96963.91;;;-3.05;58.89
55466;BME280;41329;41.594;23.810;2023-02-10T07:30:47;96957.03;;;-3.12;58.84
55466;BME280;41329;41.594;23.810;2023-02-10T07:33:12;96956.63;;;-3.04;59.06
55466;BME280;41329;41.594;23.810;2023-02-10T07:35:38;96943.00;;;-3.09;59.02
55466;BME280;41329;41.594;23.810;2023-02-10T07:38:03;96959.06;;;-2.86;58.98
55466;BME280;41329;41.594;23.810;2023-02-10T07:40:29;96903.38;;;-2.99;58.64
55466;BME280;41329;41.594;23.810;2023-02-10T07:42:55;96955.25;;;-2.69;57.99
55466;BME280;41329;41.594;23.810;2023-02-10T07:45:21;96938.78;;;-2.84;57.93
55466;BME280;41329;41.594;23.810;2023-02-10T07:47:47;96933.19;;;-2.77;57.60
55466;BME280;41329;41.594;23.810;2023-02-10T07:50:13;96949.72;;;-2.57;57.61
55466;BME280;41329;41.594;23.810;2023-02-10T07:52:38;96955.41;;;-2.59;57.67
55466;BME280;41329;41.594;23.810;2023-02-10T07:55:06;96948.53;;;-2.66;57.87
55466;BME280;41329;41.594;23.810;2023-02-10T07:57:32;96942.88;;;-2.43;58.45
55466;BME280;41329;41.594;23.810;2023-02-10T07:59:57;96934.69;;;-2.27;57.76
55466;BME280;41329;41.594;23.810;2023-02-10T08:02:22;96953.03;;;-2.12;57.31
55466;BME280;41329;41.594;23.810;2023-02-10T08:04:48;96957.00;;;-1.98;56.65
55466;BME280;41329;41.594;23.810;2023-02-10T08:07:13;96950.63;;;-1.87;56.73
55466;BME280;41329;41.594;23.810;2023-02-10T08:09:39;96940.66;;;-1.82;56.06
55466;BME280;41329;41.594;23.810;2023-02-10T08:12:05;96944.88;;;-1.91;54.43
55466;BME280;41329;41.594;23.810;2023-02-10T08:14:30;96942.75;;;-1.62;56.39
55466;BME280;41329;41.594;23.810;2023-02-10T08:16:56;96943.22;;;-1.39;55.11
55466;BME280;41329;41.594;23.810;2023-02-10T08:19:22;96936.66;;;-1.16;54.30
55466;BME280;41329;41.594;23.810;2023-02-10T08:21:47;96933.09;;;-1.17;51.34
55466;BME280;41329;41.594;23.810;2023-02-10T08:24:13;96915.72;;;-1.16;52.16
55466;BME280;41329;41.594;23.810;2023-02-10T08:26:38;96925.13;;;-0.97;51.86
55466;BME280;41329;41.594;23.810;2023-02-10T08:29:04;96922.28;;;-0.75;52.63
55466;BME280;41329;41.594;23.810;2023-02-10T08:31:30;96933.59;;;-0.47;51.56
55466;BME280;41329;41.594;23.810;2023-02-10T08:33:55;96942.97;;;-0.23;49.88
55466;BME280;41329;41.594;23.810;2023-02-10T08:36:21;96930.81;;;0.00;50.25
55466;BME280;41329;41.594;23.810;2023-02-10T08:38:48;96929.22;;;0.14;49.32
55466;BME280;41329;41.594;23.810;2023-02-10T08:41:14;96924.09;;;0.28;48.56
55466;BME280;41329;41.594;23.810;2023-02-10T08:43:40;96925.44;;;0.25;48.03
55466;BME280;41329;41.594;23.810;2023-02-10T08:46:05;96925.75;;;0.39;46.96
55466;BME280;41329;41.594;23.810;2023-02-10T08:48:31;96917.56;;;0.24;45.51
55466;BME280;41329;41.594;23.810;2023-02-10T08:50:58;96917.84;;;0.27;46.46
55466;BME280;41329;41.594;23.810;2023-02-10T08:53:23;96875.63;;;0.25;47.19
55466;BME280;41329;41.594;23.810;2023-02-10T08:56:00;96912.72;;;0.61;46.69
55466;BME280;41329;41.594;23.810;2023-02-10T08:58:27;96908.09;;;0.71;47.06
55466;BME280;41329;41.594;23.810;2023-02-10T09:00:52;96910.28;;;0.89;46.33
55466;BME280;41329;41.594;23.810;2023-02-10T09:03:18;96889.56;;;0.58;46.04
55466;BME280;41329;41.594;23.810;2023-02-10T09:05:44;96899.38;;;0.69;45.92
55466;BME280;41329;41.594;23.810;2023-02-10T09:08:12;96898.84;;;0.72;46.02
55466;BME280;41329;41.594;23.810;2023-02-10T09:10:39;96898.56;;;0.99;46.25
55466;BME280;41329;41.594;23.810;2023-02-10T09:13:05;96900.19;;;1.25;45.47
55466;BME280;41329;41.594;23.810;2023-02-10T09:15:36;96883.25;;;1.33;44.26
55466;BME280;41329;41.594;23.810;2023-02-10T09:18:02;96887.31;;;1.30;44.49
55466;BME280;41329;41.594;23.810;2023-02-10T09:20:27;96855.50;;;1.16;43.90
55466;BME280;41329;41.594;23.810;2023-02-10T09:22:53;96887.84;;;1.52;44.60
55466;BME280;41329;41.594;23.810;2023-02-10T09:25:18;96859.75;;;1.52;44.45
55466;BME280;41329;41.594;23.810;2023-02-10T09:27:44;96858.06;;;1.71;44.75
55466;BME280;41329;41.594;23.810;2023-02-10T09:30:10;96852.78;;;1.89;43.63
55466;BME280;41329;41.594;23.810;2023-02-10T09:32:36;96859.22;;;2.08;42.88
55466;BME280;41329;41.594;23.810;2023-02-10T09:35:01;96843.34;;;2.15;41.77
55466;BME280;41329;41.594;23.810;2023-02-10T09:37:26;96845.41;;;2.33;42.77
55466;BME280;41329;41.594;23.810;2023-02-10T09:39:52;96847.75;;;2.50;40.68
55466;BME280;41329;41.594;23.810;2023-02-10T09:42:24;96850.16;;;2.61;41.16
55466;BME280;41329;41.594;23.810;2023-02-10T09:44:59;96828.44;;;2.41;41.17
55466;BME280;41329;41.594;23.810;2023-02-10T09:47:48;96836.63;;;2.75;40.78
55466;BME280;41329;41.594;23.810;2023-02-10T09:53:17;96827.88;;;2.78;39.32
55466;BME280;41329;41.594;23.810;2023-02-10T09:56:00;96809.06;;;2.71;41.21
55466;BME280;41329;41.594;23.810;2023-02-10T09:58:42;96812.13;;;2.98;41.64
55466;BME280;41329;41.594;23.810;2023-02-10T10:01:46;96815.41;;;2.95;40.55
55466;BME280;41329;41.594;23.810;2023-02-10T10:04:13;96809.75;;;3.15;40.51
55466;BME280;41329;41.594;23.810;2023-02-10T10:06:52;96799.91;;;3.38;40.64
55466;BME280;41329;41.594;23.810;2023-02-10T10:09:44;96787.47;;;3.50;37.76
55466;BME280;41329;41.594;23.810;2023-02-10T10:12:19;96779.66;;;3.62;39.37
55466;BME280;41329;41.594;23.810;2023-02-10T10:14:45;96773.06;;;3.63;37.19
55466;BME280;41329;41.594;23.810;2023-02-10T10:17:49;96782.25;;;3.72;37.77
55466;BME280;41329;41.594;23.810;2023-02-10T10:31:37;96761.50;;;4.08;36.68
55466;BME280;41329;41.594;23.810;2023-02-10T10:36:38;96708.81;;;3.98;35.35
55466;BME280;41329;41.594;23.810;2023-02-10T10:39:32;96743.13;;;4.09;36.71
55466;BME280;41329;41.594;23.810;2023-02-10T10:42:09;96733.44;;;4.35;38.03
55466;BME280;41329;41.594;23.810;2023-02-10T10:44:39;96730.88;;;4.70;36.13
55466;BME280;41329;41.594;23.810;2023-02-10T10:47:13;96731.53;;;4.81;35.88
55466;BME280;41329;41.594;23.810;2023-02-10T10:49:40;96728.91;;;4.89;34.32
55466;BME280;41329;41.594;23.810;2023-02-10T10:52:26;96726.94;;;5.08;33.90
55466;BME280;41329;41.594;23.810;2023-02-10T10:54:57;96708.41;;;5.14;34.33
55466;BME280;41329;41.594;23.810;2023-02-10T10:57:25;96721.22;;;5.45;34.28
55466;BME280;41329;41.594;23.810;2023-02-10T11:00:05;96716.34;;;5.56;32.83
55466;BME280;41329;41.594;23.810;2023-02-10T11:02:38;96713.59;;;5.56;32.87
55466;BME280;41329;41.594;23.810;2023-02-10T11:05:13;96653.84;;;5.39;33.12
55466;BME280;41329;41.594;23.810;2023-02-10T11:07:40;96702.78;;;5.73;30.91
55466;BME280;41329;41.594;23.810;2023-02-10T11:10:29;96688.09;;;5.55;31.64
55466;BME280;41329;41.594;23.810;2023-02-10T11:12:57;96701.16;;;5.72;30.95
55466;BME280;41329;41.594;23.810;2023-02-10T11:17:48;96673.69;;;5.72;32.53
55466;BME280;41329;41.594;23.810;2023-02-10T11:22:40;96690.19;;;6.21;31.71
55466;BME280;41329;41.594;23.810;2023-02-10T11:25:36;96675.47;;;6.25;30.13
55466;BME280;41329;41.594;23.810;2023-02-10T11:28:04;96668.25;;;6.29;31.53
55466;BME280;41329;41.594;23.810;2023-02-10T11:30:35;96669.69;;;6.49;31.11
55466;BME280;41329;41.594;23.810;2023-02-10T11:33:03;96637.22;;;6.29;30.62
55466;BME280;41329;41.594;23.810;2023-02-10T11:35:30;96646.00;;;6.62;32.16
55466;BME280;41329;41.594;23.810;2023-02-10T11:38:02;96641.56;;;6.83;30.95
55466;BME280;41329;41.594;23.810;2023-02-10T11:40:49;96592.97;;;6.39;30.06
55466;BME280;41329;41.594;23.810;2023-02-10T11:43:16;96635.47;;;6.63;30.86
55466;BME280;41329;41.594;23.810;2023-02-10T11:45:57;96640.56;;;6.70;30.03
55466;BME280;41329;41.594;23.810;2023-02-10T11:48:24;96632.56;;;6.91;31.50
55466;BME280;41329;41.594;23.810;2023-02-10T11:51:15;96633.63;;;7.20;30.83
55466;BME280;41329;41.594;23.810;2023-02-10T11:53:43;96631.28;;;7.44;30.93
55466;BME280;41329;41.594;23.810;2023-02-10T11:58:52;96623.06;;;7.70;30.88
55466;BME280;41329;41.594;23.810;2023-02-10T12:07:00;96593.69;;;7.40;29.75
55466;BME280;41329;41.594;23.810;2023-02-10T12:09:40;96599.56;;;7.72;29.66
55466;BME280;41329;41.594;23.810;2023-02-10T12:12:42;96596.19;;;7.92;28.07
55466;BME280;41329;41.594;23.810;2023-02-10T12:21:03;96591.97;;;8.12;30.16
55466;BME280;41329;41.594;23.810;2023-02-10T12:26:09;96576.09;;;8.80;30.07
55466;BME280;41329;41.594;23.810;2023-02-10T12:28:56;96587.41;;;8.87;28.85
55466;BME280;41329;41.594;23.810;2023-02-10T12:40:43;96573.66;;;8.79;27.06
55466;BME280;41329;41.594;23.810;2023-02-10T12:54:18;96491.31;;;9.18;27.12
55466;BME280;41329;41.594;23.810;2023-02-10T12:56:58;96541.72;;;9.77;25.67
55466;BME280;41329;41.594;23.810;2023-02-10T13:05:08;96532.00;;;10.12;25.11
55466;BME280;41329;41.594;23.810;2023-02-10T13:07:57;96539.34;;;10.28;20.84
55466;BME280;41329;41.594;23.810;2023-02-10T13:10:45;96537.03;;;10.30;19.56
55466;BME280;41329;41.594;23.810;2023-02-10T13:13:15;96534.22;;;10.18;20.31
55466;BME280;41329;41.594;23.810;2023-02-10T13:15:50;96535.59;;;9.92;20.83
55466;BME280;41329;41.594;23.810;2023-02-10T13:18:23;96532.41;;;10.02;22.58
55466;BME280;41329;41.594;23.810;2023-02-10T13:21:34;96536.63;;;10.40;23.43
55466;BME280;41329;41.594;23.810;2023-02-10T13:24:21;96527.69;;;10.79;23.00
55466;BME280;41329;41.594;23.810;2023-02-10T13:32:52;96519.88;;;10.93;19.35
55466;BME280;41329;41.594;23.810;2023-02-10T13:35:23;96508.91;;;10.97;21.15
55466;BME280;41329;41.594;23.810;2023-02-10T13:37:52;96531.78;;;11.18;21.01
55466;BME280;41329;41.594;23.810;2023-02-10T13:40:27;96524.50;;;11.37;22.42
55466;BME280;41329;41.594;23.810;2023-02-10T13:42:59;96527.59;;;11.60;21.51
55466;BME280;41329;41.594;23.810;2023-02-10T13:45:28;96523.66;;;11.73;21.11
55466;BME280;41329;41.594;23.810;2023-02-10T13:47:58;96500.09;;;11.67;21.57
55466;BME280;41329;41.594;23.810;2023-02-10T13:53:05;96514.94;;;11.86;20.93
55466;BME280;41329;41.594;23.810;2023-02-10T13:55:49;96526.41;;;11.85;20.96
55466;BME280;41329;41.594;23.810;2023-02-10T13:58:28;96518.78;;;11.82;20.18
55466;BME280;41329;41.594;23.810;2023-02-10T14:00:55;96520.38;;;11.83;20.37
55466;BME280;41329;41.594;23.810;2023-02-10T14:03:24;96519.59;;;11.82;20.52
55466;BME280;41329;41.594;23.810;2023-02-10T14:05:58;96514.34;;;11.93;21.27
55466;BME280;41329;41.594;23.810;2023-02-10T14:13:34;96518.22;;;12.31;20.24
55466;BME280;41329;41.594;23.810;2023-02-10T14:18:43;96503.53;;;12.59;20.03
55466;BME280;41329;41.594;23.810;2023-02-10T14:21:13;96513.13;;;12.77;19.77
55466;BME280;41329;41.594;23.810;2023-02-10T14:23:42;96523.56;;;13.11;19.80
55466;BME280;41329;41.594;23.810;2023-02-10T14:26:18;96522.25;;;13.39;19.64
55466;BME280;41329;41.594;23.810;2023-02-10T14:28:48;96529.56;;;13.97;19.84
55466;BME280;41329;41.594;23.810;2023-02-10T14:31:35;96510.31;;;14.08;18.56
55466;BME280;41329;41.594;23.810;2023-02-10T14:34:04;96520.78;;;14.71;18.29
55466;BME280;41329;41.594;23.810;2023-02-10T14:36:30;96510.47;;;14.94;17.93
55466;BME280;41329;41.594;23.810;2023-02-10T14:39:00;96520.69;;;15.32;17.38
55466;BME280;41329;41.594;23.810;2023-02-10T14:41:32;96522.44;;;15.66;17.97
55466;BME280;41329;41.594;23.810;2023-02-10T14:43:57;96522.03;;;15.90;16.89
55466;BME280;41329;41.594;23.810;2023-02-10T14:46:25;96529.31;;;16.27;17.49
55466;BME280;41329;41.594;23.810;2023-02-10T14:48:58;96526.13;;;16.58;17.12
55466;BME280;41329;41.594;23.810;2023-02-10T14:51:26;96521.25;;;16.85;16.99
55466;BME280;41329;41.594;23.810;2023-02-10T14:53:52;96531.00;;;17.01;15.98
55466;BME280;41329;41.594;23.810;2023-02-10T14:56:23;96522.44;;;16.84;16.33
55466;BME280;41329;41.594;23.810;2023-02-10T14:58:49;96522.94;;;16.96;16.87